Terminal Aerodrome Forecast
Issued by NWS

Home | Current Version | Previous Version | Text Only | Print | Product List | Glossary On
Versions: 1 2 3 4 5 6 7 8 9 10 11 12 13 14 15 16 17 18 19 20 21 22 23 24 25 26 27 28 29 30 31 32 33
000
FTUS44 KLUB 240520
TAFCDS
TAF
KCDS 240520Z 2406/2506 15011KT 6SM BR SCT120 OVC200
     FM240800 16013KT 3SM BR BKN005 OVC010
     FM241600 18013KT P6SM SCT010 BKN150
     FM241900 17013KT P6SM SCT040 SCT150=

USA.gov is the U.S. government's official web portal to all federal, state and local government web resources and services.